| Date | Time | Temp. (oF) | Dew Point (oF) | Rel. Hum. (%) | Press. (in.) | Wind Dir. | Wind Speed (mph) | Hourly Rainfall (in.) |
|
|---|---|---|---|---|---|---|---|---|---|
| 1 | 06/04 | 00:00 | 65 | 52 | 65 | 30.11 | ESE | 0 | 0.00 |
| 2 | 06/03 | 23:00 | 66 | 48 | 53 | 30.09 | ENE | 0 | 0.00 |
| 3 | 06/03 | 22:00 | 68 | 48 | 50 | 30.08 | NE | 2 | 0.00 |
| 4 | 06/03 | 21:00 | 69 | 45 | 43 | 30.06 | N | 1 | 0.00 |
| 5 | 06/03 | 20:00 | 71 | 47 | 43 | 30.05 | NNW | 3 | 0.00 |
| 6 | 06/03 | 19:00 | 72 | 44 | 37 | 30.01 | NNW | 4 | 0.00 |
| 7 | 06/03 | 18:00 | 73 | 43 | 35 | 30.02 | W | 7 | 0.00 |
| 8 | 06/03 | 17:00 | 75 | 45 | 36 | 30.01 | NW | 2 | 0.00 |
| 9 | 06/03 | 16:00 | 75 | 42 | 32 | 30.02 | E | 1 | 0.00 |
| 10 | 06/03 | 15:00 | 74 | 47 | 40 | 30.01 | N | 3 | 0.00 |
| 11 | 06/03 | 14:00 | 73 | 45 | 38 | 30.04 | WNW | 7 | 0.00 |
| 12 | 06/03 | 13:00 | 71 | 45 | 40 | 30.05 | W | 2 | 0.00 |
| 13 | 06/03 | 12:00 | 69 | 42 | 39 | 30.06 | NW | 4 | 0.00 |
| 14 | 06/03 | 11:00 | 68 | 47 | 48 | 30.07 | NW | 5 | 0.00 |
| 15 | 06/03 | 10:00 | 66 | 45 | 47 | 30.07 | NW | 5 | 0.00 |
| 16 | 06/03 | 09:00 | 64 | 44 | 50 | 30.07 | W | 10 | 0.00 |
| 17 | 06/03 | 08:00 | 61 | 43 | 52 | 30.06 | N | 6 | 0.00 |
| 18 | 06/03 | 07:00 | 56 | 47 | 73 | 30.04 | WNW | 0 | 0.00 |
| 19 | 06/03 | 06:00 | 55 | 46 | 72 | 30.00 | S | 1 | 0.00 |
| 20 | 06/03 | 05:00 | 57 | 46 | 67 | 29.96 | WNW | 1 | 0.00 |
| 21 | 06/03 | 04:00 | 57 | 49 | 75 | 29.93 | NW | 0 | 0.00 |
| 22 | 06/03 | 03:00 | 58 | 47 | 67 | 29.92 | NNW | 1 | 0.00 |
| 23 | 06/03 | 02:00 | 60 | 43 | 55 | 29.92 | NW | 3 | 0.00 |
| 24 | 06/03 | 01:00 | 63 | 47 | 57 | 29.91 | NE | 0 | 0.00 |